Venus Seven — H9RN — position and weather

sailwx.info

Track history (hours):
 
Tides and Currents Weather Stations Pressure Air Temp Water Temp Dewpoint Dewpoint Depression Visibility Wind Speed Wind Dir Waves Ship Positions

Venus Seven

Last reported at 2015-Mar-05 14:11 UTC. Time now 2015-Mar-06 16:09 UTC.
Position N 22°44' E 120°07'.

Length 93 m; draft 5.4 m.

Type: Cargo ship. MMSI: 353405000.

Date/timePositionNaut miles runAvg speedWind from/ knotsBaromVisibWave heightAir tempDewpointWater temp
2015-Mar-05 14:11N 22°44' E 120°07'812.8
2015-Mar-05 13:34N 22°37' E 120°11'10 1.8
2015-Mar-05 08:22N 22°33' E 120°21'0 0.0
2015-Mar-05 07:10N 22°33' E 120°21'1 0.2
2015-Mar-05 04:33N 22°33' E 120°20'4 3.9
2015-Mar-05 03:28N 22°36' E 120°17'0 0.0
2015-Mar-05 02:28N 22°36' E 120°17'0 0.0
2015-Mar-05 01:28N 22°36' E 120°17'0 0.0
2015-Mar-05 00:22N 22°36' E 120°17'0 0.0
2015-Mar-04 23:28N 22°36' E 120°17'0 0.0
2015-Mar-04 22:28N 22°36' E 120°17'0 0.0
2015-Mar-04 21:28N 22°36' E 120°17'0 0.0
2015-Mar-04 20:34N 22°36' E 120°17'0 0.0
2015-Mar-04 19:33N 22°36' E 120°17'0 0.0
2015-Mar-04 18:33N 22°36' E 120°17'0 0.0
2015-Mar-04 17:33N 22°36' E 120°17'0 0.0
2015-Mar-04 16:33N 22°36' E 120°17'0 0.0
2015-Mar-04 15:33N 22°36' E 120°17'0 0.0
2015-Mar-04 14:27N 22°36' E 120°17'0 0.0
2015-Mar-04 13:33N 22°36' E 120°17'0 0.0
2015-Mar-04 12:33N 22°36' E 120°17'0 0.0
2015-Mar-04 11:33N 22°36' E 120°17'0 0.0
2015-Mar-04 10:27N 22°36' E 120°17'0 0.0
2015-Mar-04 09:33N 22°36' E 120°17'0 0.0
2015-Mar-04 08:27N 22°36' E 120°17'0 0.0
2015-Mar-04 07:33N 22°36' E 120°17'0 0.0
2015-Mar-04 06:33N 22°36' E 120°17'0 0.0
2015-Mar-04 05:33N 22°36' E 120°17'0 0.1
2015-Mar-04 04:33N 22°36' E 120°17'9 9.4
2015-Mar-04 03:33N 22°41' E 120°09'1313.2
2015-Mar-04 02:33N 22°52' E 120°01'  
2015-Feb-28 09:33N 33°41' E 129°54'1312.3
2015-Feb-28 08:27N 33°48' E 130°08'22810.8
2015-Feb-27 11:15N 34°37' E 134°37'21 0.8
2015-Feb-26 07:30N 34°37' E 135°03'1112.0
2015-Feb-26 06:33N 34°36' E 135°17'7 7.1
2015-Feb-26 05:33N 34°38' E 135°25'0 0.0
2015-Feb-26 04:27N 34°38' E 135°25'0 0.0
2015-Feb-26 03:33N 34°38' E 135°25'0 0.0
2015-Feb-26 02:15N 34°38' E 135°25'0 0.0
2015-Feb-26 01:24N 34°38' E 135°25'0 0.0
2015-Feb-26 00:30N 34°38' E 135°25'0 0.0
2015-Feb-25 23:30N 34°38' E 135°25'0 0.0
2015-Feb-25 22:30N 34°38' E 135°25'0 0.0
2015-Feb-25 21:30N 34°38' E 135°25'0 0.0
2015-Feb-25 20:30N 34°38' E 135°25'0 0.0
2015-Feb-25 19:30N 34°38' E 135°25'0 0.0
2015-Feb-25 18:30N 34°38' E 135°25'0 0.0
2015-Feb-25 17:23N 34°38' E 135°25'0 0.0
2015-Feb-25 16:29N 34°38' E 135°25'0 0.0
2015-Feb-25 15:29N 34°38' E 135°25'0 0.0
2015-Feb-25 14:29N 34°38' E 135°25'0 0.0
2015-Feb-25 13:23N 34°38' E 135°25'0 0.0
2015-Feb-25 12:29N 34°38' E 135°25'0 0.0
2015-Feb-25 11:29N 34°38' E 135°25'0 0.0
2015-Feb-25 10:29N 34°38' E 135°25'0 0.0
2015-Feb-25 09:29N 34°38' E 135°25'0 0.0
2015-Feb-25 08:23N 34°38' E 135°25'0 0.0
2015-Feb-25 07:29N 34°38' E 135°25'0 0.0
2015-Feb-25 06:29N 34°38' E 135°25'0 0.0
2015-Feb-25 05:29N 34°38' E 135°25'0 0.0
2015-Feb-25 04:29N 34°38' E 135°25'0 0.0
2015-Feb-25 03:29N 34°38' E 135°25'0 0.0
2015-Feb-25 02:29N 34°38' E 135°25'0 0.0
2015-Feb-25 01:23N 34°38' E 135°25'0 0.0
2015-Feb-25 00:29N 34°38' E 135°25'0 0.0
2015-Feb-24 23:23N 34°38' E 135°25'0 0.0
2015-Feb-24 22:23N 34°38' E 135°25'0 0.0
2015-Feb-24 21:29N 34°38' E 135°25'0 0.0
2015-Feb-24 20:29N 34°38' E 135°25'0 0.0
2015-Feb-24 19:23N 34°38' E 135°25'0 0.0
2015-Feb-24 18:17N 34°38' E 135°25'0 0.0
2015-Feb-24 17:29N 34°38' E 135°25'0 0.0
2015-Feb-24 16:29N 34°38' E 135°25'0 0.0
2015-Feb-24 15:29N 34°38' E 135°25'0 0.0
2015-Feb-24 14:29N 34°38' E 135°25'0 0.0
2015-Feb-24 13:29N 34°38' E 135°25'0 0.0
2015-Feb-24 12:29N 34°38' E 135°25'0 0.0
2015-Feb-24 11:17N 34°38' E 135°25'0 0.0
2015-Feb-24 10:29N 34°38' E 135°25'0 0.0
2015-Feb-24 09:29N 34°38' E 135°25'0 0.0
2015-Feb-24 08:29N 34°38' E 135°25'0 0.0
2015-Feb-24 07:29N 34°38' E 135°25'0 0.0
2015-Feb-24 06:29N 34°38' E 135°25'0 0.0
2015-Feb-24 05:22N 34°38' E 135°25'0 0.0
2015-Feb-24 04:28N 34°38' E 135°25'0 0.0
2015-Feb-24 03:22N 34°38' E 135°25'0 0.0
2015-Feb-24 02:28N 34°38' E 135°25'0 0.0
2015-Feb-24 01:28N 34°38' E 135°25'0 0.0
2015-Feb-24 00:28N 34°38' E 135°25'0 0.0
2015-Feb-23 23:28N 34°38' E 135°25'0 0.0
2015-Feb-23 22:28N 34°38' E 135°25'1 1.3
2015-Feb-23 21:33N 34°38' E 135°23'1 0.8
2015-Feb-23 20:30N 34°37' E 135°23'0 0.0
2015-Feb-23 19:30N 34°37' E 135°23'0 0.0
2015-Feb-23 18:30N 34°37' E 135°23'6 6.0
2015-Feb-23 17:33N 34°36' E 135°16'1212.2
2015-Feb-23 16:33N 34°37' E 135°02'1111.1
2015-Feb-23 15:33N 34°33' E 134°49'  
Track history (hours):
 
Tides and Currents Weather Stations Pressure Air Temp Water Temp Dewpoint Dewpoint Depression Visibility Wind Speed Wind Dir Waves Ship Positions

Venus Seven

Last reported at 2015-Mar-05 14:11 UTC. Time now 2015-Mar-06 16:09 UTC.
Position N 22°44' E 120°07'.

Length 93 m; draft 5.4 m.

Type: Cargo ship. MMSI: 353405000.

Date/timePositionNaut miles runAvg speedWind from/ knotsBaromVisibWave heightAir tempDewpointWater temp
2015-Mar-05 14:11N 22°44' E 120°07'812.8
2015-Mar-05 13:34N 22°37' E 120°11'10 1.8
2015-Mar-05 08:22N 22°33' E 120°21'0 0.0
2015-Mar-05 07:10N 22°33' E 120°21'1 0.2
2015-Mar-05 04:33N 22°33' E 120°20'4 3.9
2015-Mar-05 03:28N 22°36' E 120°17'0 0.0
2015-Mar-05 02:28N 22°36' E 120°17'0 0.0
2015-Mar-05 01:28N 22°36' E 120°17'0 0.0
2015-Mar-05 00:22N 22°36' E 120°17'0 0.0
2015-Mar-04 23:28N 22°36' E 120°17'0 0.0
2015-Mar-04 22:28N 22°36' E 120°17'0 0.0
2015-Mar-04 21:28N 22°36' E 120°17'0 0.0
2015-Mar-04 20:34N 22°36' E 120°17'0 0.0
2015-Mar-04 19:33N 22°36' E 120°17'0 0.0
2015-Mar-04 18:33N 22°36' E 120°17'0 0.0
2015-Mar-04 17:33N 22°36' E 120°17'0 0.0
2015-Mar-04 16:33N 22°36' E 120°17'0 0.0
2015-Mar-04 15:33N 22°36' E 120°17'0 0.0
2015-Mar-04 14:27N 22°36' E 120°17'0 0.0
2015-Mar-04 13:33N 22°36' E 120°17'0 0.0
2015-Mar-04 12:33N 22°36' E 120°17'0 0.0
2015-Mar-04 11:33N 22°36' E 120°17'0 0.0
2015-Mar-04 10:27N 22°36' E 120°17'0 0.0
2015-Mar-04 09:33N 22°36' E 120°17'0 0.0
2015-Mar-04 08:27N 22°36' E 120°17'0 0.0
2015-Mar-04 07:33N 22°36' E 120°17'0 0.0
2015-Mar-04 06:33N 22°36' E 120°17'0 0.0
2015-Mar-04 05:33N 22°36' E 120°17'0 0.1
2015-Mar-04 04:33N 22°36' E 120°17'9 9.4
2015-Mar-04 03:33N 22°41' E 120°09'1313.2
2015-Mar-04 02:33N 22°52' E 120°01'  
2015-Feb-28 09:33N 33°41' E 129°54'1312.3
2015-Feb-28 08:27N 33°48' E 130°08'22810.8
2015-Feb-27 11:15N 34°37' E 134°37'21 0.8
2015-Feb-26 07:30N 34°37' E 135°03'1112.0
2015-Feb-26 06:33N 34°36' E 135°17'7 7.1
2015-Feb-26 05:33N 34°38' E 135°25'0 0.0
2015-Feb-26 04:27N 34°38' E 135°25'0 0.0
2015-Feb-26 03:33N 34°38' E 135°25'0 0.0
2015-Feb-26 02:15N 34°38' E 135°25'0 0.0
2015-Feb-26 01:24N 34°38' E 135°25'0 0.0
2015-Feb-26 00:30N 34°38' E 135°25'0 0.0
2015-Feb-25 23:30N 34°38' E 135°25'0 0.0
2015-Feb-25 22:30N 34°38' E 135°25'0 0.0
2015-Feb-25 21:30N 34°38' E 135°25'0 0.0
2015-Feb-25 20:30N 34°38' E 135°25'0 0.0
2015-Feb-25 19:30N 34°38' E 135°25'0 0.0
2015-Feb-25 18:30N 34°38' E 135°25'0 0.0
2015-Feb-25 17:23N 34°38' E 135°25'0 0.0
2015-Feb-25 16:29N 34°38' E 135°25'0 0.0
2015-Feb-25 15:29N 34°38' E 135°25'0 0.0
2015-Feb-25 14:29N 34°38' E 135°25'0 0.0
2015-Feb-25 13:23N 34°38' E 135°25'0 0.0
2015-Feb-25 12:29N 34°38' E 135°25'0 0.0
2015-Feb-25 11:29N 34°38' E 135°25'0 0.0
2015-Feb-25 10:29N 34°38' E 135°25'0 0.0
2015-Feb-25 09:29N 34°38' E 135°25'0 0.0
2015-Feb-25 08:23N 34°38' E 135°25'0 0.0
2015-Feb-25 07:29N 34°38' E 135°25'0 0.0
2015-Feb-25 06:29N 34°38' E 135°25'0 0.0
2015-Feb-25 05:29N 34°38' E 135°25'0 0.0
2015-Feb-25 04:29N 34°38' E 135°25'0 0.0
2015-Feb-25 03:29N 34°38' E 135°25'0 0.0
2015-Feb-25 02:29N 34°38' E 135°25'0 0.0
2015-Feb-25 01:23N 34°38' E 135°25'0 0.0
2015-Feb-25 00:29N 34°38' E 135°25'0 0.0
2015-Feb-24 23:23N 34°38' E 135°25'0 0.0
2015-Feb-24 22:23N 34°38' E 135°25'0 0.0
2015-Feb-24 21:29N 34°38' E 135°25'0 0.0
2015-Feb-24 20:29N 34°38' E 135°25'0 0.0
2015-Feb-24 19:23N 34°38' E 135°25'0 0.0
2015-Feb-24 18:17N 34°38' E 135°25'0 0.0
2015-Feb-24 17:29N 34°38' E 135°25'0 0.0
2015-Feb-24 16:29N 34°38' E 135°25'0 0.0
2015-Feb-24 15:29N 34°38' E 135°25'0 0.0
2015-Feb-24 14:29N 34°38' E 135°25'0 0.0
2015-Feb-24 13:29N 34°38' E 135°25'0 0.0
2015-Feb-24 12:29N 34°38' E 135°25'0 0.0
2015-Feb-24 11:17N 34°38' E 135°25'0 0.0
2015-Feb-24 10:29N 34°38' E 135°25'0 0.0
2015-Feb-24 09:29N 34°38' E 135°25'0 0.0
2015-Feb-24 08:29N 34°38' E 135°25'0 0.0
2015-Feb-24 07:29N 34°38' E 135°25'0 0.0
2015-Feb-24 06:29N 34°38' E 135°25'0 0.0
2015-Feb-24 05:22N 34°38' E 135°25'0 0.0
2015-Feb-24 04:28N 34°38' E 135°25'0 0.0
2015-Feb-24 03:22N 34°38' E 135°25'0 0.0
2015-Feb-24 02:28N 34°38' E 135°25'0 0.0
2015-Feb-24 01:28N 34°38' E 135°25'0 0.0
2015-Feb-24 00:28N 34°38' E 135°25'0 0.0
2015-Feb-23 23:28N 34°38' E 135°25'0 0.0
2015-Feb-23 22:28N 34°38' E 135°25'1 1.3
2015-Feb-23 21:33N 34°38' E 135°23'1 0.8
2015-Feb-23 20:30N 34°37' E 135°23'0 0.0
2015-Feb-23 19:30N 34°37' E 135°23'0 0.0
2015-Feb-23 18:30N 34°37' E 135°23'6 6.0
2015-Feb-23 17:33N 34°36' E 135°16'1212.2
2015-Feb-23 16:33N 34°37' E 135°02'1111.1
2015-Feb-23 15:33N 34°33' E 134°49'  

Dump ship's entire track history